createdAt,value
2023-03-01T00:01:35.308Z,5.26
2023-03-01T00:04:03.294Z,5.29
2023-03-01T00:06:31.316Z,5.30
2023-03-01T00:08:59.206Z,5.21
2023-03-01T00:11:29.619Z,5.22
2023-03-01T00:14:01.558Z,5.22
2023-03-01T00:16:33.342Z,5.27
2023-03-01T00:19:01.186Z,5.31
2023-03-01T00:21:29.407Z,5.20
2023-03-01T00:23:58.125Z,5.24
2023-03-01T00:26:27.213Z,5.25
2023-03-01T00:28:58.393Z,5.30
2023-03-01T00:31:28.641Z,5.47
2023-03-01T00:34:03.628Z,5.41
2023-03-01T00:36:34.232Z,5.37
2023-03-01T00:39:03.509Z,5.42
2023-03-01T00:41:31.456Z,5.32
2023-03-01T00:43:59.168Z,5.10
2023-03-01T00:46:27.915Z,5.11
2023-03-01T00:48:55.846Z,5.13
2023-03-01T00:51:26.143Z,5.13
2023-03-01T00:53:56.126Z,5.30
2023-03-01T00:56:24.363Z,5.54
2023-03-01T00:58:51.957Z,5.60
2023-03-01T01:01:23.036Z,5.33
2023-03-01T01:03:56.062Z,5.41
2023-03-01T01:06:30.365Z,5.42
2023-03-01T01:09:00.043Z,5.61
2023-03-01T01:11:29.447Z,5.43
2023-03-01T01:13:57.830Z,5.37
2023-03-01T01:16:27.887Z,5.37
2023-03-01T01:18:57.319Z,5.23
2023-03-01T01:21:26.497Z,5.32
2023-03-01T01:23:54.794Z,5.32
2023-03-01T01:26:28.250Z,5.32
2023-03-01T01:28:58.835Z,5.23
2023-03-01T01:31:28.148Z,5.11
2023-03-01T01:33:57.029Z,5.16
2023-03-01T01:36:25.142Z,5.34
2023-03-01T01:38:53.364Z,5.30
2023-03-01T01:41:21.850Z,5.20
2023-03-01T01:44:09.380Z,5.38
2023-03-01T01:46:39.880Z,5.37
2023-03-01T01:49:18.677Z,5.30
2023-03-01T01:51:48.683Z,5.28
2023-03-01T01:54:27.152Z,5.27
2023-03-01T01:57:04.550Z,5.16
2023-03-01T01:59:33.307Z,5.29
2023-03-01T02:02:04.328Z,5.28
2023-03-01T02:04:33.396Z,5.31
2023-03-01T02:07:13.071Z,5.17
2023-03-01T02:09:48.185Z,5.20
2023-03-01T02:12:18.127Z,5.17
2023-03-01T02:14:45.984Z,5.11
2023-03-01T02:17:16.188Z,5.17
2023-03-01T02:20:17.433Z,5.14
2023-03-01T02:22:47.534Z,5.12
2023-03-01T02:25:24.726Z,5.19
2023-03-01T02:28:03.965Z,5.11
2023-03-01T02:30:33.523Z,5.12
2023-03-01T02:33:04.041Z,5.11
2023-03-01T02:35:36.374Z,5.01
2023-03-01T02:38:05.137Z,5.13
2023-03-01T02:40:34.743Z,5.03
2023-03-01T02:43:04.494Z,5.08
2023-03-01T02:45:32.280Z,5.04
2023-03-01T02:48:01.349Z,4.95
2023-03-01T02:50:29.535Z,5.05
2023-03-01T02:53:06.102Z,4.96
2023-03-01T02:55:34.163Z,5.07
2023-03-01T02:58:03.524Z,4.85
2023-03-01T03:00:38.111Z,4.99
2023-03-01T03:03:06.689Z,5.05
2023-03-01T03:05:35.417Z,5.01
2023-03-01T03:08:04.185Z,5.12
2023-03-01T03:10:36.077Z,5.18
2023-03-01T03:13:09.350Z,5.09
2023-03-01T03:15:38.638Z,5.33
2023-03-01T03:18:11.036Z,5.17
2023-03-01T03:20:40.874Z,5.34
2023-03-01T03:23:08.567Z,5.19
2023-03-01T03:25:36.169Z,5.10
2023-03-01T03:28:05.574Z,5.10
2023-03-01T03:30:34.081Z,5.19
2023-03-01T03:33:01.810Z,5.19
2023-03-01T03:35:31.990Z,5.26
2023-03-01T03:38:03.086Z,5.22
2023-03-01T03:40:40.081Z,5.40
2023-03-01T03:43:11.023Z,5.29
2023-03-01T03:45:39.299Z,5.28
2023-03-01T03:48:08.957Z,5.25
2023-03-01T03:50:37.959Z,5.26
2023-03-01T03:53:09.312Z,5.22
2023-03-01T03:55:37.170Z,5.20
2023-03-01T03:58:04.941Z,5.13
2023-03-01T04:00:40.600Z,5.19
2023-03-01T04:03:09.124Z,5.16
2023-03-01T04:05:37.748Z,5.13
2023-03-01T04:08:05.986Z,5.15
2023-03-01T04:10:39.413Z,5.16
2023-03-01T04:13:08.840Z,5.11
2023-03-01T04:15:37.311Z,5.20
2023-03-01T04:18:05.601Z,5.11
2023-03-01T04:20:35.565Z,5.13
2023-03-01T04:23:06.752Z,5.07
2023-03-01T04:25:34.554Z,5.01
2023-03-01T04:28:02.229Z,5.16
2023-03-01T04:30:30.658Z,5.05
2023-03-01T04:32:58.261Z,5.01
2023-03-01T04:35:26.120Z,4.98
2023-03-01T04:37:54.321Z,5.04
2023-03-01T04:40:25.517Z,5.11
2023-03-01T04:42:53.233Z,4.98
2023-03-01T04:45:21.684Z,4.96
2023-03-01T04:47:49.281Z,4.91
2023-03-01T04:50:18.234Z,4.93
2023-03-01T04:52:46.285Z,5.01
2023-03-01T04:55:14.231Z,4.97
2023-03-01T04:57:41.955Z,5.07
2023-03-01T05:00:12.878Z,4.98
2023-03-01T05:02:41.629Z,4.93
2023-03-01T05:05:09.414Z,5.02
2023-03-01T05:07:37.520Z,5.14
2023-03-01T05:10:11.103Z,5.06
2023-03-01T05:12:41.170Z,5.09
2023-03-01T05:15:09.094Z,5.06
2023-03-01T05:17:36.756Z,5.19
2023-03-01T05:20:07.984Z,5.05
2023-03-01T05:22:37.837Z,5.27
2023-03-01T05:25:06.545Z,5.14
2023-03-01T05:27:34.986Z,5.07
2023-03-01T05:30:04.984Z,5.01
2023-03-01T05:32:34.602Z,4.94
2023-03-01T05:35:02.235Z,5.05
2023-03-01T05:37:29.947Z,5.12
2023-03-01T05:39:58.532Z,5.16
2023-03-01T05:42:26.201Z,4.98
2023-03-01T05:44:53.785Z,5.09
2023-03-01T05:47:21.705Z,5.01
2023-03-01T05:49:52.649Z,5.06
2023-03-01T05:52:20.900Z,4.96
2023-03-01T05:55:00.962Z,5.13
2023-03-01T05:57:30.178Z,5.07
2023-03-01T05:59:58.701Z,5.06
2023-03-01T06:02:26.414Z,5.12
2023-03-01T06:04:54.599Z,5.00
2023-03-01T06:07:22.426Z,5.04
2023-03-01T06:09:50.892Z,5.05
2023-03-01T06:12:18.933Z,4.98
2023-03-01T06:14:47.528Z,5.14
2023-03-01T06:17:15.364Z,5.11
2023-03-01T06:19:43.408Z,5.10
2023-03-01T06:22:11.230Z,5.15
2023-03-01T06:24:39.776Z,5.17
2023-03-01T06:27:07.814Z,5.22
2023-03-01T06:29:35.898Z,5.33
2023-03-01T06:32:04.128Z,5.35
2023-03-01T06:34:32.409Z,5.39
2023-03-01T06:37:00.106Z,5.22
2023-03-01T06:39:28.765Z,5.20
2023-03-01T06:41:57.115Z,5.28
2023-03-01T06:44:24.778Z,5.17
2023-03-01T06:46:52.746Z,5.40
2023-03-01T06:49:20.897Z,5.36
2023-03-01T06:51:48.518Z,5.36
2023-03-01T06:54:16.487Z,5.56
2023-03-01T06:56:47.625Z,5.49
2023-03-01T06:59:16.340Z,5.59
2023-03-01T07:01:47.721Z,5.54
2023-03-01T07:04:15.524Z,5.56
2023-03-01T07:06:43.165Z,5.68
2023-03-01T07:09:11.213Z,5.93
2023-03-01T07:11:38.910Z,5.89
2023-03-01T07:14:06.801Z,6.05
2023-03-01T07:16:35.176Z,6.04
2023-03-01T07:19:03.024Z,6.14
2023-03-01T07:21:30.745Z,6.21
2023-03-01T07:23:59.026Z,6.42
2023-03-01T07:26:26.684Z,6.47
2023-03-01T07:28:54.474Z,6.12
2023-03-01T07:31:22.573Z,6.57
2023-03-01T07:33:50.566Z,6.42
2023-03-01T07:36:18.384Z,6.44
2023-03-01T07:38:46.637Z,6.68
2023-03-01T07:41:14.424Z,6.71
2023-03-01T07:43:42.154Z,6.97
2023-03-01T07:46:10.359Z,7.05
2023-03-01T07:48:38.129Z,7.02
2023-03-01T07:51:07.036Z,6.89
2023-03-01T07:53:35.464Z,7.36
2023-03-01T07:56:07.444Z,7.07
2023-03-01T07:58:37.422Z,7.27
2023-03-01T08:01:10.147Z,7.32
2023-03-01T08:03:38.642Z,7.35
2023-03-01T08:06:08.656Z,7.55
2023-03-01T08:08:36.735Z,7.50
2023-03-01T08:11:06.709Z,7.58
2023-03-01T08:13:34.826Z,7.82
2023-03-01T08:16:08.286Z,7.93
2023-03-01T08:18:36.500Z,7.98
2023-03-01T08:21:09.514Z,7.97
2023-03-01T08:23:37.896Z,8.15
2023-03-01T08:26:10.227Z,8.21
2023-03-01T08:28:38.089Z,7.93
2023-03-01T08:31:19.954Z,8.45
2023-03-01T08:33:49.882Z,8.23
2023-03-01T08:36:18.416Z,8.40
2023-03-01T08:38:46.153Z,8.09
2023-03-01T08:41:14.432Z,8.69
2023-03-01T08:43:42.319Z,8.58
2023-03-01T08:46:10.244Z,8.49
2023-03-01T08:48:38.170Z,8.71
2023-03-01T08:51:19.620Z,8.72
2023-03-01T08:53:47.694Z,8.58
2023-03-01T08:56:16.330Z,9.03
2023-03-01T08:58:48.465Z,8.75
2023-03-01T09:01:19.115Z,8.66
2023-03-01T09:03:47.150Z,8.83
2023-03-01T09:06:14.904Z,9.07
2023-03-01T09:08:45.057Z,8.90
2023-03-01T09:11:15.047Z,9.05
2023-03-01T09:13:44.380Z,9.12
2023-03-01T09:16:13.964Z,9.04
2023-03-01T09:18:41.736Z,9.17
2023-03-01T09:21:12.788Z,9.10
2023-03-01T09:23:43.898Z,8.97
2023-03-01T09:26:16.042Z,9.20
2023-03-01T09:28:43.666Z,9.32
2023-03-01T09:31:11.555Z,9.70
2023-03-01T09:33:40.293Z,9.29
2023-03-01T09:36:11.607Z,9.56
2023-03-01T09:38:39.839Z,9.71
2023-03-01T09:41:18.515Z,9.87
2023-03-01T09:43:49.316Z,9.92
2023-03-01T09:46:17.049Z,9.80
2023-03-01T09:49:06.662Z,9.96
2023-03-01T09:51:36.583Z,10.14
2023-03-01T09:54:05.764Z,10.55
2023-03-01T09:56:33.978Z,10.68
2023-03-01T09:59:14.308Z,10.63
2023-03-01T10:02:02.520Z,10.93
2023-03-01T10:04:37.657Z,10.92
2023-03-01T10:07:11.497Z,10.97
2023-03-01T10:09:43.062Z,10.64
2023-03-01T10:12:17.586Z,10.82
2023-03-01T10:14:54.003Z,10.76
2023-03-01T10:17:38.628Z,10.78
2023-03-01T10:20:28.088Z,11.03
2023-03-01T10:22:56.346Z,11.41
2023-03-01T10:25:34.187Z,11.44
2023-03-01T10:28:32.153Z,11.60
2023-03-01T10:31:00.407Z,11.42
2023-03-01T10:33:31.655Z,11.63
2023-03-01T10:35:59.267Z,11.90
2023-03-01T10:38:31.390Z,11.81
2023-03-01T10:41:00.473Z,11.77
2023-03-01T10:43:42.952Z,12.04
2023-03-01T10:46:24.785Z,12.15
2023-03-01T10:49:20.539Z,12.27
2023-03-01T10:51:51.097Z,12.50
2023-03-01T10:54:24.825Z,12.40
2023-03-01T10:56:54.801Z,12.25
2023-03-01T10:59:27.461Z,12.33
2023-03-01T11:02:23.628Z,12.61
2023-03-01T11:05:23.940Z,12.83
2023-03-01T11:07:54.771Z,13.16
2023-03-01T11:10:29.316Z,13.05
2023-03-01T11:13:13.834Z,13.05
2023-03-01T11:15:42.453Z,12.98
2023-03-01T11:18:21.420Z,13.15
2023-03-01T11:20:51.967Z,13.39
2023-03-01T11:23:20.290Z,13.40
2023-03-01T11:26:01.540Z,13.43
2023-03-01T11:28:30.620Z,13.61
2023-03-01T11:31:09.029Z,13.80
2023-03-01T11:33:49.154Z,14.04
2023-03-01T11:36:42.857Z,14.09
2023-03-01T11:39:38.026Z,14.04
2023-03-01T11:42:20.063Z,13.81
2023-03-01T11:44:50.809Z,14.58
2023-03-01T11:47:56.171Z,14.03
2023-03-01T11:50:42.133Z,14.64
2023-03-01T11:53:22.216Z,14.42
2023-03-01T11:55:52.848Z,14.86
2023-03-01T11:58:53.341Z,14.55
2023-03-01T12:01:27.814Z,14.57
2023-03-01T12:04:26.248Z,14.43
2023-03-01T12:06:58.486Z,14.91
2023-03-01T12:09:32.550Z,15.09
2023-03-01T12:12:17.400Z,15.10
2023-03-01T12:15:40.723Z,14.64
2023-03-01T12:18:17.402Z,15.09
2023-03-01T12:20:51.009Z,15.13
2023-03-01T12:23:42.884Z,15.40
2023-03-01T12:26:13.304Z,15.37
2023-03-01T12:28:54.251Z,15.62
2023-03-01T12:31:40.692Z,15.41
2023-03-01T12:34:35.853Z,15.98
2023-03-01T12:37:15.585Z,15.78
2023-03-01T12:39:50.365Z,15.62
2023-03-01T12:42:21.248Z,15.64
2023-03-01T12:45:17.756Z,15.62
2023-03-01T12:47:57.927Z,16.17
2023-03-01T12:50:41.392Z,15.55
2023-03-01T12:53:21.070Z,16.05
2023-03-01T12:55:48.987Z,16.37
2023-03-01T12:58:47.342Z,16.63
2023-03-01T13:01:28.920Z,15.76
2023-03-01T13:04:25.816Z,15.90
2023-03-01T13:07:40.279Z,16.04
2023-03-01T13:10:33.116Z,15.90
2023-03-01T13:13:15.010Z,16.08
2023-03-01T13:15:43.052Z,15.82
2023-03-01T13:18:16.578Z,16.34
2023-03-01T13:20:49.857Z,16.00
2023-03-01T13:23:20.122Z,16.19
2023-03-01T13:26:00.127Z,16.68
2023-03-01T13:28:46.763Z,17.12
2023-03-01T13:31:17.778Z,17.49
2023-03-01T13:33:55.053Z,18.28
2023-03-01T13:36:28.743Z,17.66
2023-03-01T13:38:56.709Z,17.79
2023-03-01T13:41:39.841Z,17.91
2023-03-01T13:44:35.572Z,18.14
2023-03-01T13:47:06.903Z,18.08
2023-03-01T13:49:47.871Z,17.57
2023-03-01T13:52:46.239Z,16.97
2023-03-01T13:55:18.695Z,16.79
2023-03-01T13:57:50.589Z,17.42
2023-03-01T14:00:38.780Z,16.73
2023-03-01T14:03:27.124Z,16.53
2023-03-01T14:06:13.034Z,16.66
2023-03-01T14:08:43.368Z,16.16
2023-03-01T14:11:41.295Z,16.42
2023-03-01T14:14:09.176Z,16.03
2023-03-01T14:17:27.746Z,15.65
2023-03-01T14:20:01.646Z,15.91
2023-03-01T14:22:31.864Z,16.24
2023-03-01T14:25:01.343Z,15.26
2023-03-01T14:27:39.965Z,15.53
2023-03-01T14:30:20.609Z,15.51
2023-03-01T14:32:59.690Z,15.13
2023-03-01T14:35:32.164Z,15.47
2023-03-01T14:38:00.043Z,15.54
2023-03-01T14:40:35.354Z,15.24
2023-03-01T14:43:11.769Z,14.79
2023-03-01T14:45:39.914Z,14.33
2023-03-01T14:48:08.328Z,14.55
2023-03-01T14:50:41.709Z,14.80
2023-03-01T14:53:18.918Z,13.98
2023-03-01T14:55:49.082Z,13.76
2023-03-01T14:58:21.301Z,13.87
2023-03-01T15:00:53.753Z,13.56
2023-03-01T15:03:34.554Z,13.71
2023-03-01T15:06:03.693Z,13.92
2023-03-01T15:08:32.720Z,13.68
2023-03-01T15:11:31.468Z,13.93
2023-03-01T15:14:00.128Z,13.64
2023-03-01T15:16:32.970Z,13.41
2023-03-01T15:19:07.073Z,13.36
2023-03-01T15:21:39.152Z,13.14
2023-03-01T15:24:13.346Z,13.28
2023-03-01T15:26:45.666Z,13.24
2023-03-01T15:29:19.110Z,13.21
2023-03-01T15:31:58.727Z,12.93
2023-03-01T15:34:35.415Z,12.79
2023-03-01T15:37:27.785Z,12.59
2023-03-01T15:40:02.914Z,12.79
2023-03-01T15:42:32.234Z,13.08
2023-03-01T15:45:23.852Z,13.01
2023-03-01T15:47:55.735Z,12.96
2023-03-01T15:50:27.402Z,13.12
2023-03-01T15:52:55.809Z,12.70
2023-03-01T15:55:31.658Z,12.65
2023-03-01T15:58:06.820Z,12.41
2023-03-01T16:00:34.928Z,12.39
2023-03-01T16:03:03.029Z,12.36
2023-03-01T16:05:33.405Z,12.21
2023-03-01T16:08:01.792Z,12.12
2023-03-01T16:10:33.627Z,12.12
2023-03-01T16:13:01.492Z,11.98
2023-03-01T16:15:33.094Z,11.87
2023-03-01T16:18:01.234Z,11.76
2023-03-01T16:20:33.759Z,11.45
2023-03-01T16:23:03.659Z,11.37
2023-03-01T16:25:33.222Z,11.23
2023-03-01T16:28:01.308Z,11.10
2023-03-01T16:30:30.782Z,11.00
2023-03-01T16:32:58.913Z,10.85
2023-03-01T16:35:26.809Z,10.77
2023-03-01T16:37:54.816Z,10.69
2023-03-01T16:40:28.909Z,10.54
2023-03-01T16:42:58.471Z,10.37
2023-03-01T16:45:36.693Z,10.30
2023-03-01T16:48:05.070Z,10.14
2023-03-01T16:50:33.498Z,10.13
2023-03-01T16:53:01.288Z,9.96
2023-03-01T16:55:29.294Z,9.96
2023-03-01T16:57:57.841Z,9.81
2023-03-01T17:00:26.351Z,9.70
2023-03-01T17:02:54.890Z,9.59
2023-03-01T17:05:22.812Z,9.47
2023-03-01T17:07:50.676Z,9.25
2023-03-01T17:10:18.732Z,9.16
2023-03-01T17:12:49.664Z,9.25
2023-03-01T17:15:17.474Z,9.12
2023-03-01T17:17:45.353Z,9.01
2023-03-01T17:20:13.866Z,8.95
2023-03-01T17:22:42.295Z,8.89
2023-03-01T17:25:11.145Z,8.80
2023-03-01T17:27:40.527Z,8.75
2023-03-01T17:30:10.469Z,8.74
2023-03-01T17:32:42.317Z,8.55
2023-03-01T17:35:10.868Z,8.43
2023-03-01T17:37:42.005Z,8.32
2023-03-01T17:40:11.906Z,8.27
2023-03-01T17:42:43.329Z,8.27
2023-03-01T17:45:11.818Z,8.20
2023-03-01T17:47:39.574Z,8.07
2023-03-01T17:50:09.281Z,8.00
2023-03-01T17:52:44.435Z,7.96
2023-03-01T17:55:12.237Z,7.85
2023-03-01T17:57:41.154Z,7.83
2023-03-01T18:00:13.223Z,7.83
2023-03-01T18:02:46.726Z,7.78
2023-03-01T18:05:14.602Z,7.74
2023-03-01T18:07:43.282Z,7.76
2023-03-01T18:10:11.994Z,7.78
2023-03-01T18:12:42.259Z,7.66
2023-03-01T18:15:10.788Z,7.62
2023-03-01T18:17:38.784Z,7.64
2023-03-01T18:20:07.635Z,7.60
2023-03-01T18:22:36.788Z,7.51
2023-03-01T18:25:07.766Z,7.50
2023-03-01T18:27:35.827Z,7.49
2023-03-01T18:30:08.214Z,7.41
2023-03-01T18:32:36.529Z,7.33
2023-03-01T18:35:04.938Z,7.28
2023-03-01T18:37:34.345Z,7.22
2023-03-01T18:40:03.716Z,7.25
2023-03-01T18:42:33.986Z,7.15
2023-03-01T18:45:02.477Z,7.13
2023-03-01T18:47:31.554Z,7.09
2023-03-01T18:50:02.719Z,7.07
2023-03-01T18:52:32.680Z,7.05
2023-03-01T18:55:00.591Z,7.00
2023-03-01T18:57:28.653Z,6.93
2023-03-01T18:59:57.461Z,6.95
2023-03-01T19:02:25.808Z,6.84
2023-03-01T19:04:54.232Z,6.76
2023-03-01T19:07:22.501Z,6.76
2023-03-01T19:09:50.973Z,6.75
2023-03-01T19:12:19.073Z,6.71
2023-03-01T19:14:47.302Z,6.78
2023-03-01T19:17:15.247Z,6.76
2023-03-01T19:19:43.404Z,6.75
2023-03-01T19:22:11.665Z,6.66
2023-03-01T19:24:39.599Z,6.64
2023-03-01T19:27:07.535Z,6.60
2023-03-01T19:29:35.579Z,6.67
2023-03-01T19:32:03.824Z,6.61
2023-03-01T19:34:31.482Z,6.53
2023-03-01T19:36:59.609Z,6.54
2023-03-01T19:39:27.353Z,6.47
2023-03-01T19:41:56.319Z,6.44
2023-03-01T19:44:24.550Z,6.56
2023-03-01T19:46:56.328Z,6.52
2023-03-01T19:49:25.398Z,6.58
2023-03-01T19:51:53.353Z,6.70
2023-03-01T19:54:21.219Z,6.64
2023-03-01T19:56:50.178Z,6.67
2023-03-01T19:59:18.300Z,6.61
2023-03-01T20:01:46.339Z,6.54
2023-03-01T20:04:14.519Z,6.42
2023-03-01T20:06:45.385Z,6.31
2023-03-01T20:09:21.540Z,6.09
2023-03-01T20:11:50.671Z,5.94
2023-03-01T20:14:18.868Z,5.93
2023-03-01T20:16:46.673Z,5.86
2023-03-01T20:19:16.180Z,5.83
2023-03-01T20:21:43.764Z,5.83
2023-03-01T20:24:11.747Z,5.87
2023-03-01T20:26:40.089Z,5.83
2023-03-01T20:29:08.146Z,5.92
2023-03-01T20:31:36.187Z,5.94
2023-03-01T20:34:04.503Z,5.88
2023-03-01T20:36:32.515Z,5.86
2023-03-01T20:39:00.391Z,5.86
2023-03-01T20:41:28.552Z,5.83
2023-03-01T20:43:59.631Z,5.75
2023-03-01T20:46:27.646Z,5.65
2023-03-01T20:48:56.521Z,5.61
2023-03-01T20:51:24.611Z,5.68
2023-03-01T20:53:53.091Z,5.66
2023-03-01T20:56:24.695Z,5.58
2023-03-01T20:59:06.671Z,5.78
2023-03-01T21:01:38.285Z,5.70
2023-03-01T21:04:06.167Z,5.58
2023-03-01T21:06:34.082Z,5.52
2023-03-01T21:09:02.414Z,5.52
2023-03-01T21:11:30.749Z,5.50
2023-03-01T21:13:58.933Z,5.53
2023-03-01T21:16:27.193Z,5.52
2023-03-01T21:18:54.955Z,5.43
2023-03-01T21:21:23.710Z,5.44
2023-03-01T21:23:51.855Z,5.54
2023-03-01T21:26:25.692Z,5.90
2023-03-01T21:28:58.819Z,5.89
2023-03-01T21:31:28.776Z,5.92
2023-03-01T21:33:58.791Z,5.81
2023-03-01T21:36:28.236Z,5.74
2023-03-01T21:39:00.458Z,5.93
2023-03-01T21:41:30.914Z,6.01
2023-03-01T21:44:00.594Z,5.63
2023-03-01T21:46:30.982Z,5.67
2023-03-01T21:48:59.605Z,5.56
2023-03-01T21:51:48.120Z,5.56
2023-03-01T21:54:20.018Z,5.50
2023-03-01T21:56:47.734Z,5.47
2023-03-01T21:59:18.200Z,5.37
2023-03-01T22:01:47.168Z,5.40
2023-03-01T22:04:15.934Z,5.40
2023-03-01T22:06:45.527Z,5.31
2023-03-01T22:09:14.478Z,5.36
2023-03-01T22:11:45.538Z,5.32
2023-03-01T22:14:14.001Z,5.31
2023-03-01T22:16:42.817Z,5.26
2023-03-01T22:19:11.955Z,5.30
2023-03-01T22:21:44.940Z,5.08
2023-03-01T22:24:13.280Z,5.02
2023-03-01T22:26:43.107Z,5.13
2023-03-01T22:29:14.254Z,5.08
2023-03-01T22:31:42.743Z,5.12
2023-03-01T22:34:11.133Z,5.04
2023-03-01T22:36:38.785Z,4.95
2023-03-01T22:39:06.889Z,4.94
2023-03-01T22:41:40.498Z,4.88
2023-03-01T22:44:08.863Z,4.86
2023-03-01T22:46:36.716Z,4.86
2023-03-01T22:49:04.463Z,4.88
2023-03-01T22:51:35.055Z,4.78
2023-03-01T22:54:02.840Z,4.85
2023-03-01T22:56:32.780Z,4.87
2023-03-01T22:59:06.163Z,4.89
2023-03-01T23:01:34.237Z,4.83
2023-03-01T23:04:02.464Z,4.85
2023-03-01T23:06:30.835Z,4.86
2023-03-01T23:09:01.156Z,4.85
2023-03-01T23:11:29.422Z,4.76
2023-03-01T23:13:58.407Z,4.78
2023-03-01T23:16:29.541Z,5.02
2023-03-01T23:18:57.478Z,4.92
2023-03-01T23:21:25.212Z,4.80
2023-03-01T23:23:54.603Z,4.73
2023-03-01T23:26:25.793Z,4.72
2023-03-01T23:28:55.417Z,4.64
2023-03-01T23:31:23.725Z,4.53
2023-03-01T23:33:51.333Z,4.52
2023-03-01T23:36:24.587Z,4.47
2023-03-01T23:38:56.598Z,4.48
2023-03-01T23:41:26.177Z,4.41
2023-03-01T23:43:56.320Z,4.49
2023-03-01T23:46:25.529Z,4.41
2023-03-01T23:48:54.254Z,4.44
2023-03-01T23:51:23.631Z,4.41
2023-03-01T23:53:55.738Z,4.39
2023-03-01T23:56:25.857Z,4.35
2023-03-01T23:58:59.197Z,4.36
